createdAt,value
2022-08-11T00:02:28.455Z,97.70
2022-08-11T00:04:58.286Z,97.95
2022-08-11T00:07:29.221Z,98.20
2022-08-11T00:09:57.718Z,98.65
2022-08-11T00:12:27.650Z,98.91
2022-08-11T00:15:00.285Z,99.37
2022-08-11T00:17:30.100Z,99.55
2022-08-11T00:20:15.463Z,99.61
2022-08-11T00:22:48.378Z,100.00
2022-08-11T00:25:17.740Z,100.00
2022-08-11T00:27:46.018Z,100.00
2022-08-11T00:30:14.944Z,100.00
2022-08-11T00:32:44.954Z,100.00
2022-08-11T00:35:56.478Z,100.00
2022-08-11T00:38:07.654Z,100.00
2022-08-11T00:40:49.525Z,100.00
2022-08-11T00:43:24.804Z,100.00
2022-08-11T00:46:09.969Z,100.00
2022-08-11T00:48:46.244Z,100.00
2022-08-11T00:51:26.617Z,100.00
2022-08-11T00:54:40.549Z,100.00
2022-08-11T00:57:37.780Z,100.00
2022-08-11T01:00:13.768Z,100.00
2022-08-11T01:03:08.106Z,100.00
2022-08-11T01:05:47.005Z,100.00
2022-08-11T01:08:52.373Z,100.00
2022-08-11T01:11:57.404Z,100.00
2022-08-11T01:14:51.977Z,100.00
2022-08-11T01:18:05.029Z,100.00
2022-08-11T01:21:07.746Z,100.00
2022-08-11T01:24:09.094Z,100.00
2022-08-11T01:27:19.056Z,100.00
2022-08-11T01:30:18.749Z,100.00
2022-08-11T01:33:09.486Z,100.00
2022-08-11T01:35:56.469Z,100.00
2022-08-11T01:39:05.350Z,100.00
2022-08-11T01:42:14.788Z,100.00
2022-08-11T01:45:07.872Z,100.00
2022-08-11T01:47:54.352Z,100.00
2022-08-11T01:50:29.732Z,100.00
2022-08-11T01:53:12.658Z,100.00
2022-08-11T01:55:50.821Z,100.00
2022-08-11T01:58:40.715Z,100.00
2022-08-11T02:01:21.544Z,100.00
2022-08-11T02:03:57.918Z,100.00
2022-08-11T02:06:53.807Z,100.00
2022-08-11T02:09:34.019Z,100.00
2022-08-11T02:12:14.101Z,100.00
2022-08-11T02:14:53.448Z,100.00
2022-08-11T02:17:42.553Z,100.00
2022-08-11T02:20:36.901Z,100.00
2022-08-11T02:24:04.030Z,100.00
2022-08-11T02:26:24.549Z,100.00
2022-08-11T02:29:04.583Z,100.00
2022-08-11T02:32:24.831Z,100.00
2022-08-11T02:35:00.837Z,100.00
2022-08-11T02:37:38.281Z,100.00
2022-08-11T02:40:17.382Z,100.00
2022-08-11T02:43:01.973Z,100.00
2022-08-11T02:45:54.387Z,100.00
2022-08-11T02:48:53.172Z,100.00
2022-08-11T02:51:30.979Z,100.00
2022-08-11T02:54:08.490Z,100.00
2022-08-11T02:56:44.811Z,100.00
2022-08-11T02:59:43.379Z,100.00
2022-08-11T03:02:23.362Z,100.00
2022-08-11T03:05:03.791Z,100.00
2022-08-11T03:07:37.147Z,100.00
2022-08-11T03:10:11.492Z,100.00
2022-08-11T03:13:07.753Z,100.00
2022-08-11T03:16:07.450Z,100.00
2022-08-11T03:18:42.127Z,100.00
2022-08-11T03:21:18.714Z,100.00
2022-08-11T03:23:56.808Z,100.00
2022-08-11T03:26:29.701Z,100.00
2022-08-11T03:29:07.553Z,100.00
2022-08-11T03:31:45.412Z,100.00
2022-08-11T03:34:18.254Z,100.00
2022-08-11T03:37:17.506Z,100.00
2022-08-11T03:40:00.923Z,100.00
2022-08-11T03:42:42.534Z,100.00
2022-08-11T03:45:22.609Z,100.00
2022-08-11T03:48:01.842Z,100.00
2022-08-11T03:51:06.313Z,100.00
2022-08-11T03:53:49.277Z,100.00
2022-08-11T03:56:58.758Z,100.00
2022-08-11T04:00:07.893Z,100.00
2022-08-11T04:03:15.782Z,100.00
2022-08-11T04:06:22.048Z,100.00
2022-08-11T04:09:23.402Z,100.00
2022-08-11T04:12:14.827Z,100.00
2022-08-11T04:15:44.541Z,100.00
2022-08-11T04:18:32.000Z,100.00
2022-08-11T04:21:42.033Z,100.00
2022-08-11T04:24:39.557Z,100.00
2022-08-11T04:27:37.315Z,100.00
2022-08-11T04:30:11.951Z,100.00
2022-08-11T04:33:04.849Z,100.00
2022-08-11T04:35:48.618Z,100.00
2022-08-11T04:38:39.442Z,100.00
2022-08-11T04:41:32.965Z,100.00
2022-08-11T04:44:26.665Z,100.00
2022-08-11T04:47:05.950Z,100.00
2022-08-11T04:50:35.449Z,100.00
2022-08-11T04:53:33.077Z,100.00
2022-08-11T04:56:26.441Z,100.00
2022-08-11T04:59:40.354Z,100.00
2022-08-11T05:02:42.545Z,100.00
2022-08-11T05:05:32.346Z,100.00
2022-08-11T05:08:41.325Z,100.00
2022-08-11T05:11:44.956Z,100.00
2022-08-11T05:14:48.138Z,100.00
2022-08-11T05:17:40.496Z,100.00
2022-08-11T05:20:29.284Z,100.00
2022-08-11T05:23:19.514Z,100.00
2022-08-11T05:26:44.596Z,100.00
2022-08-11T05:29:20.306Z,100.00
2022-08-11T05:32:17.441Z,100.00
2022-08-11T05:34:51.074Z,100.00
2022-08-11T05:37:27.292Z,100.00
2022-08-11T05:40:19.609Z,100.00
2022-08-11T05:43:09.098Z,96.95
2022-08-11T05:46:02.510Z,87.37
2022-08-11T05:48:52.749Z,69.15
2022-08-11T05:51:38.950Z,70.18
2022-08-11T05:54:29.630Z,64.27
2022-08-11T05:56:59.539Z,62.78
2022-08-11T05:59:29.223Z,60.39
2022-08-11T06:02:02.902Z,59.25
2022-08-11T06:04:31.474Z,56.27
2022-08-11T06:07:02.756Z,52.22
2022-08-11T06:09:34.637Z,53.51
2022-08-11T06:12:05.022Z,46.83
2022-08-11T06:14:34.917Z,52.53
2022-08-11T06:17:05.474Z,45.24
2022-08-11T06:19:39.536Z,51.70
2022-08-11T06:22:11.063Z,48.53
2022-08-11T06:24:41.592Z,46.14
2022-08-11T06:27:13.977Z,45.41
2022-08-11T06:29:54.840Z,47.05
2022-08-11T06:32:27.421Z,47.85
2022-08-11T06:35:15.408Z,44.55
2022-08-11T06:37:58.926Z,45.32
2022-08-11T06:40:36.668Z,45.41
2022-08-11T06:43:16.342Z,46.41
2022-08-11T06:45:52.714Z,48.41
2022-08-11T06:48:24.176Z,47.72
2022-08-11T06:51:11.663Z,48.91
2022-08-11T06:53:44.265Z,49.46
2022-08-11T06:57:01.681Z,47.45
2022-08-11T07:00:12.597Z,49.95
2022-08-11T07:02:50.117Z,49.17
2022-08-11T07:05:23.526Z,47.59
2022-08-11T07:08:41.909Z,47.70
2022-08-11T07:11:57.346Z,48.10
2022-08-11T07:14:46.165Z,47.99
2022-08-11T07:17:21.387Z,45.01
2022-08-11T07:20:11.407Z,47.73
2022-08-11T07:23:04.731Z,45.08
2022-08-11T07:25:52.722Z,45.12
2022-08-11T07:28:42.892Z,45.92
2022-08-11T07:31:13.982Z,47.82
2022-08-11T07:34:07.300Z,48.15
2022-08-11T07:36:35.141Z,46.60
2022-08-11T07:39:04.988Z,48.78
2022-08-11T07:41:35.927Z,48.69
2022-08-11T07:44:09.831Z,46.87
2022-08-11T07:46:59.674Z,48.74
2022-08-11T07:49:47.849Z,47.48
2022-08-11T07:52:32.230Z,50.16
2022-08-11T07:55:03.535Z,51.17
2022-08-11T07:58:13.609Z,50.23
2022-08-11T08:00:56.262Z,51.34
2022-08-11T08:03:54.332Z,51.70
2022-08-11T08:06:41.342Z,52.54
2022-08-11T08:09:27.877Z,53.32
2022-08-11T08:12:14.718Z,53.82
2022-08-11T08:15:01.247Z,56.44
2022-08-11T08:18:20.903Z,56.27
2022-08-11T08:20:39.406Z,55.21
2022-08-11T08:23:08.017Z,55.15
2022-08-11T08:25:38.200Z,53.95
2022-08-11T08:28:10.757Z,54.18
2022-08-11T08:30:47.509Z,54.07
2022-08-11T08:33:18.296Z,53.45
2022-08-11T08:35:55.839Z,54.73
2022-08-11T08:38:24.159Z,54.93
2022-08-11T08:40:56.594Z,54.25
2022-08-11T08:43:26.516Z,55.36
2022-08-11T08:45:58.273Z,56.11
2022-08-11T08:48:27.381Z,56.45
2022-08-11T08:51:20.063Z,56.24
2022-08-11T08:53:53.444Z,55.31
2022-08-11T08:56:29.172Z,55.61
2022-08-11T08:59:01.906Z,53.66
2022-08-11T09:01:31.566Z,55.41
2022-08-11T09:04:04.632Z,55.65
2022-08-11T09:06:40.084Z,55.99
2022-08-11T09:09:09.195Z,56.67
2022-08-11T09:11:53.542Z,54.55
2022-08-11T09:14:25.358Z,54.12
2022-08-11T09:16:54.552Z,54.83
2022-08-11T09:19:22.674Z,53.76
2022-08-11T09:22:13.294Z,53.34
2022-08-11T09:24:58.800Z,51.26
2022-08-11T09:27:27.657Z,53.35
2022-08-11T09:29:57.171Z,53.35
2022-08-11T09:32:25.112Z,51.66
2022-08-11T09:34:54.308Z,54.13
2022-08-11T09:37:55.779Z,53.92
2022-08-11T09:40:31.405Z,52.00
2022-08-11T09:43:21.271Z,53.33
2022-08-11T09:45:52.369Z,53.46
2022-08-11T09:48:20.762Z,52.23
2022-08-11T09:50:51.446Z,51.92
2022-08-11T09:53:35.279Z,50.97
2022-08-11T09:56:28.847Z,46.43
2022-08-11T09:58:56.698Z,48.63
2022-08-11T10:01:31.130Z,50.02
2022-08-11T10:04:01.898Z,51.13
2022-08-11T10:06:54.403Z,48.54
2022-08-11T10:09:25.352Z,48.69
2022-08-11T10:11:58.020Z,49.73
2022-08-11T10:14:45.181Z,49.74
2022-08-11T10:17:17.112Z,48.26
2022-08-11T10:20:02.000Z,47.93
2022-08-11T10:22:50.328Z,50.75
2022-08-11T10:25:35.471Z,47.43
2022-08-11T10:28:29.011Z,46.65
2022-08-11T10:31:13.639Z,46.42
2022-08-11T10:34:01.586Z,46.93
2022-08-11T10:36:30.828Z,49.30
2022-08-11T10:39:00.344Z,49.44
2022-08-11T10:42:08.550Z,46.65
2022-08-11T10:44:39.125Z,46.96
2022-08-11T10:47:25.425Z,43.17
2022-08-11T10:50:09.794Z,45.48
2022-08-11T10:52:56.196Z,46.32
2022-08-11T10:55:42.537Z,48.45
2022-08-11T10:58:28.466Z,47.79
2022-08-11T11:00:58.782Z,46.44
2022-08-11T11:03:27.860Z,43.37
2022-08-11T11:06:28.729Z,44.91
2022-08-11T11:08:58.768Z,45.81
2022-08-11T11:11:51.474Z,44.93
2022-08-11T11:14:46.770Z,44.27
2022-08-11T11:17:38.881Z,43.87
2022-08-11T11:20:08.885Z,44.18
2022-08-11T11:23:04.481Z,45.06
2022-08-11T11:26:05.598Z,43.89
2022-08-11T11:28:47.989Z,44.10
2022-08-11T11:31:31.797Z,48.36
2022-08-11T11:34:15.480Z,47.33
2022-08-11T11:36:48.556Z,48.38
2022-08-11T11:39:21.365Z,43.73
2022-08-11T11:41:50.638Z,41.56
2022-08-11T11:44:19.057Z,42.11
2022-08-11T11:46:47.093Z,40.99
2022-08-11T11:49:18.531Z,41.63
2022-08-11T11:51:50.058Z,43.62
2022-08-11T11:54:23.681Z,43.29
2022-08-11T11:56:53.377Z,41.97
2022-08-11T11:59:40.146Z,43.42
2022-08-11T12:02:12.223Z,43.81
2022-08-11T12:04:43.441Z,43.78
2022-08-11T12:07:29.980Z,43.60
2022-08-11T12:10:00.151Z,43.14
2022-08-11T12:12:45.626Z,41.34
2022-08-11T12:15:14.168Z,40.55
2022-08-11T12:17:42.035Z,39.04
2022-08-11T12:20:32.146Z,39.65
2022-08-11T12:23:16.015Z,38.96
2022-08-11T12:26:26.330Z,39.33
2022-08-11T12:28:52.056Z,38.17
2022-08-11T12:31:25.813Z,38.50
2022-08-11T12:33:53.845Z,39.44
2022-08-11T12:36:23.129Z,39.66
2022-08-11T12:38:52.852Z,41.58
2022-08-11T12:41:40.821Z,39.36
2022-08-11T12:44:29.597Z,39.38
2022-08-11T12:47:00.589Z,39.96
2022-08-11T12:49:49.188Z,38.15
2022-08-11T12:52:23.221Z,37.03
2022-08-11T12:54:57.546Z,37.06
2022-08-11T12:57:49.576Z,37.90
2022-08-11T13:00:36.161Z,38.24
2022-08-11T13:03:24.191Z,36.29
2022-08-11T13:05:56.631Z,36.96
2022-08-11T13:08:25.885Z,35.34
2022-08-11T13:11:14.296Z,41.10
2022-08-11T13:13:55.353Z,35.95
2022-08-11T13:16:26.168Z,37.58
2022-08-11T13:18:54.484Z,38.33
2022-08-11T13:21:23.265Z,37.69
2022-08-11T13:23:59.640Z,36.84
2022-08-11T13:26:47.075Z,37.98
2022-08-11T13:29:25.236Z,39.03
2022-08-11T13:31:55.845Z,37.99
2022-08-11T13:34:26.681Z,37.90
2022-08-11T13:36:56.767Z,39.96
2022-08-11T13:39:26.935Z,39.14
2022-08-11T13:41:56.772Z,39.55
2022-08-11T13:44:28.318Z,37.39
2022-08-11T13:46:58.494Z,38.22
2022-08-11T13:49:27.468Z,38.71
2022-08-11T13:51:56.573Z,39.47
2022-08-11T13:54:27.825Z,39.14
2022-08-11T13:56:57.913Z,39.37
2022-08-11T13:59:30.979Z,38.99
2022-08-11T14:02:22.744Z,39.01
2022-08-11T14:04:56.066Z,40.73
2022-08-11T14:07:26.498Z,39.52
2022-08-11T14:09:59.559Z,39.40
2022-08-11T14:12:46.892Z,38.21
2022-08-11T14:15:20.702Z,38.82
2022-08-11T14:17:53.294Z,39.39
2022-08-11T14:20:39.450Z,38.46
2022-08-11T14:23:10.820Z,39.00
2022-08-11T14:26:02.305Z,39.24
2022-08-11T14:28:38.814Z,38.92
2022-08-11T14:31:11.274Z,38.60
2022-08-11T14:34:00.574Z,37.54
2022-08-11T14:36:29.610Z,38.32
2022-08-11T14:38:57.821Z,37.73
2022-08-11T14:42:11.119Z,38.29
2022-08-11T14:44:50.351Z,38.14
2022-08-11T14:47:23.843Z,37.63
2022-08-11T14:50:09.628Z,37.82
2022-08-11T14:52:39.336Z,38.43
2022-08-11T14:55:35.333Z,37.44
2022-08-11T14:58:04.254Z,37.89
2022-08-11T15:00:34.089Z,38.44
2022-08-11T15:03:13.695Z,38.54
2022-08-11T15:05:52.446Z,39.08
2022-08-11T15:08:42.276Z,38.59
2022-08-11T15:11:32.182Z,39.01
2022-08-11T15:14:00.915Z,39.29
2022-08-11T15:16:46.983Z,39.41
2022-08-11T15:19:19.535Z,39.74
2022-08-11T15:22:05.089Z,39.96
2022-08-11T15:24:35.454Z,39.66
2022-08-11T15:27:24.233Z,39.37
2022-08-11T15:30:17.588Z,40.13
2022-08-11T15:33:17.397Z,39.28
2022-08-11T15:36:03.905Z,39.71
2022-08-11T15:38:36.129Z,40.09
2022-08-11T15:41:23.670Z,40.10
2022-08-11T15:44:13.141Z,40.09
2022-08-11T15:46:43.345Z,39.56
2022-08-11T15:49:21.834Z,39.92
2022-08-11T15:52:01.934Z,39.49
2022-08-11T15:54:32.938Z,40.02
2022-08-11T15:57:02.579Z,40.17
2022-08-11T15:59:52.136Z,40.11
2022-08-11T16:02:41.549Z,39.83
2022-08-11T16:05:14.081Z,39.75
2022-08-11T16:08:03.935Z,39.23
2022-08-11T16:10:33.005Z,39.15
2022-08-11T16:13:17.302Z,39.48
2022-08-11T16:16:09.926Z,38.70
2022-08-11T16:18:43.900Z,38.66
2022-08-11T16:21:26.037Z,38.78
2022-08-11T16:24:07.614Z,39.60
2022-08-11T16:27:07.852Z,39.09
2022-08-11T16:29:28.550Z,39.96
2022-08-11T16:32:14.892Z,39.75
2022-08-11T16:35:02.609Z,39.07
2022-08-11T16:37:49.322Z,38.67
2022-08-11T16:40:20.670Z,39.55
2022-08-11T16:43:10.912Z,39.29
2022-08-11T16:45:58.213Z,39.74
2022-08-11T16:48:33.480Z,40.19
2022-08-11T16:51:06.113Z,40.40
2022-08-11T16:53:59.593Z,40.65
2022-08-11T16:56:25.984Z,40.91
2022-08-11T16:59:15.333Z,41.04
2022-08-11T17:01:46.434Z,41.22
2022-08-11T17:04:38.940Z,41.48
2022-08-11T17:07:41.736Z,41.77
2022-08-11T17:10:50.764Z,42.25
2022-08-11T17:13:28.974Z,42.36
2022-08-11T17:16:12.756Z,42.83
2022-08-11T17:18:52.406Z,43.44
2022-08-11T17:21:22.981Z,43.27
2022-08-11T17:23:54.800Z,43.27
2022-08-11T17:26:27.781Z,43.63
2022-08-11T17:29:00.234Z,43.66
2022-08-11T17:31:47.392Z,43.90
2022-08-11T17:34:32.752Z,43.92
2022-08-11T17:37:01.084Z,44.10
2022-08-11T17:39:32.515Z,44.45
2022-08-11T17:42:18.770Z,44.62
2022-08-11T17:45:06.812Z,44.95
2022-08-11T17:47:52.817Z,44.70
2022-08-11T17:50:21.155Z,44.70
2022-08-11T17:53:07.089Z,44.71
2022-08-11T17:55:54.333Z,44.65
2022-08-11T17:58:41.966Z,45.01
2022-08-11T18:01:12.653Z,44.76
2022-08-11T18:03:53.024Z,44.95
2022-08-11T18:06:34.004Z,44.79
2022-08-11T18:09:22.561Z,44.91
2022-08-11T18:12:11.515Z,45.14
2022-08-11T18:14:59.186Z,45.25
2022-08-11T18:17:46.021Z,45.30
2022-08-11T18:20:31.248Z,46.43
2022-08-11T18:23:19.542Z,46.95
2022-08-11T18:26:07.586Z,46.60
2022-08-11T18:28:57.942Z,47.04
2022-08-11T18:31:44.594Z,47.76
2022-08-11T18:34:38.985Z,47.31
2022-08-11T18:37:29.497Z,48.17
2022-08-11T18:40:18.369Z,47.64
2022-08-11T18:43:06.904Z,47.82
2022-08-11T18:46:07.077Z,48.77
2022-08-11T18:48:55.390Z,48.26
2022-08-11T18:51:44.019Z,48.22
2022-08-11T18:54:30.941Z,48.29
2022-08-11T18:57:19.698Z,48.99
2022-08-11T19:00:07.109Z,49.23
2022-08-11T19:02:55.524Z,49.93
2022-08-11T19:06:32.384Z,50.30
2022-08-11T19:08:52.956Z,50.00
2022-08-11T19:11:42.744Z,50.41
2022-08-11T19:14:30.485Z,50.67
2022-08-11T19:17:44.080Z,51.02
2022-08-11T19:20:24.695Z,51.44
2022-08-11T19:23:12.985Z,52.40
2022-08-11T19:26:01.714Z,53.23
2022-08-11T19:28:48.714Z,54.10
2022-08-11T19:31:34.046Z,53.95
2022-08-11T19:34:21.529Z,54.62
2022-08-11T19:37:07.133Z,55.17
2022-08-11T19:39:54.014Z,55.99
2022-08-11T19:42:41.819Z,57.04
2022-08-11T19:45:27.546Z,57.24
2022-08-11T19:48:31.238Z,58.05
2022-08-11T19:51:18.602Z,58.72
2022-08-11T19:54:05.886Z,60.79
2022-08-11T19:56:52.088Z,60.86
2022-08-11T19:59:39.882Z,61.63
2022-08-11T20:02:25.215Z,61.76
2022-08-11T20:05:10.425Z,62.88
2022-08-11T20:07:56.479Z,64.71
2022-08-11T20:10:41.682Z,63.52
2022-08-11T20:13:28.401Z,64.40
2022-08-11T20:16:17.006Z,65.36
2022-08-11T20:19:04.461Z,65.17
2022-08-11T20:21:50.804Z,66.83
2022-08-11T20:24:36.580Z,66.43
2022-08-11T20:27:25.311Z,67.83
2022-08-11T20:30:11.954Z,67.92
2022-08-11T20:33:00.571Z,68.36
2022-08-11T20:35:47.966Z,68.72
2022-08-11T20:38:34.509Z,69.08
2022-08-11T20:41:21.839Z,69.59
2022-08-11T20:44:09.784Z,69.56
2022-08-11T20:50:04.858Z,71.50
2022-08-11T20:52:50.550Z,71.54
2022-08-11T20:55:51.275Z,72.00
2022-08-11T20:59:13.481Z,72.24
2022-08-11T21:01:45.425Z,72.80
2022-08-11T21:04:31.041Z,73.75
2022-08-11T21:07:28.259Z,73.60
2022-08-11T21:10:22.937Z,74.11
2022-08-11T21:13:18.207Z,74.30
2022-08-11T21:16:25.618Z,74.55
2022-08-11T21:19:18.668Z,74.93
2022-08-11T21:22:06.320Z,75.86
2022-08-11T21:24:54.816Z,76.20
2022-08-11T21:27:42.122Z,76.35
2022-08-11T21:30:28.431Z,76.31
2022-08-11T21:33:13.682Z,76.76
2022-08-11T21:36:01.101Z,76.87
2022-08-11T21:38:47.606Z,77.03
2022-08-11T21:41:35.634Z,77.39
2022-08-11T21:44:22.394Z,77.94
2022-08-11T21:47:08.701Z,78.30
2022-08-11T21:49:55.731Z,78.65
2022-08-11T21:52:41.211Z,79.15
2022-08-11T21:55:27.985Z,79.59
2022-08-11T21:58:16.161Z,79.85
2022-08-11T22:01:02.600Z,80.17
2022-08-11T22:03:50.347Z,80.45
2022-08-11T22:06:36.835Z,80.69
2022-08-11T22:09:22.824Z,80.88
2022-08-11T22:12:30.073Z,81.47
2022-08-11T22:15:14.752Z,81.84
2022-08-11T22:17:59.681Z,82.35
2022-08-11T22:20:46.002Z,82.60
2022-08-11T22:23:36.099Z,83.03
2022-08-11T22:26:24.304Z,83.36
2022-08-11T22:29:09.573Z,83.37
2022-08-11T22:31:57.683Z,83.32
2022-08-11T22:34:52.661Z,83.32
2022-08-11T22:37:40.283Z,83.29
2022-08-11T22:40:27.610Z,83.10
2022-08-11T22:43:12.816Z,82.96
2022-08-11T22:45:58.222Z,82.97
2022-08-11T22:48:46.809Z,82.90
2022-08-11T22:51:33.614Z,82.88
2022-08-11T22:54:21.030Z,82.96
2022-08-11T22:57:07.344Z,83.05
2022-08-11T22:59:54.873Z,83.41
2022-08-11T23:02:41.280Z,83.87
2022-08-11T23:05:28.547Z,84.23
2022-08-11T23:08:14.536Z,84.49
2022-08-11T23:11:00.386Z,85.13
2022-08-11T23:13:46.619Z,85.53
2022-08-11T23:16:32.045Z,86.22
2022-08-11T23:20:08.790Z,87.17
2022-08-11T23:22:37.838Z,88.38
2022-08-11T23:25:32.488Z,88.80
2022-08-11T23:28:18.952Z,90.51
2022-08-11T23:31:04.227Z,91.83
2022-08-11T23:33:49.901Z,92.51
2022-08-11T23:36:46.542Z,93.56
2022-08-11T23:39:34.745Z,94.14
2022-08-11T23:42:21.336Z,94.82
2022-08-11T23:45:07.269Z,95.19
2022-08-11T23:47:57.581Z,95.59
2022-08-11T23:50:43.830Z,96.09
2022-08-11T23:53:29.726Z,96.59
2022-08-11T23:56:16.325Z,96.92
2022-08-11T23:59:02.265Z,97.67
